sensor_id;sensor_type;location;lat;lon;timestamp;P1;durP1;ratioP1;P2;durP2;ratioP2
38715;SDS011;24833;49.324;8.694;2023-12-29T00:00:05;3.53;;;2.90;;
38715;SDS011;24833;49.324;8.694;2023-12-29T00:02:32;3.58;;;3.28;;
38715;SDS011;24833;49.324;8.694;2023-12-29T00:04:59;4.30;;;3.08;;
38715;SDS011;24833;49.324;8.694;2023-12-29T00:07:27;4.78;;;3.00;;
38715;SDS011;24833;49.324;8.694;2023-12-29T00:09:54;3.15;;;2.85;;
38715;SDS011;24833;49.324;8.694;2023-12-29T00:12:21;3.63;;;2.80;;
38715;SDS011;24833;49.324;8.694;2023-12-29T00:14:48;3.75;;;3.30;;
38715;SDS011;24833;49.324;8.694;2023-12-29T00:17:16;3.40;;;2.90;;
38715;SDS011;24833;49.324;8.694;2023-12-29T00:19:43;4.00;;;3.22;;
38715;SDS011;24833;49.324;8.694;2023-12-29T00:22:10;3.53;;;2.75;;
38715;SDS011;24833;49.324;8.694;2023-12-29T00:24:37;4.18;;;3.47;;
38715;SDS011;24833;49.324;8.694;2023-12-29T00:27:06;3.47;;;3.10;;
38715;SDS011;24833;49.324;8.694;2023-12-29T00:29:33;3.58;;;3.28;;
38715;SDS011;24833;49.324;8.694;2023-12-29T00:32:01;2.95;;;2.65;;
38715;SDS011;24833;49.324;8.694;2023-12-29T00:34:30;4.05;;;2.90;;
38715;SDS011;24833;49.324;8.694;2023-12-29T00:36:58;3.38;;;2.90;;
38715;SDS011;24833;49.324;8.694;2023-12-29T00:39:25;3.65;;;3.20;;
38715;SDS011;24833;49.324;8.694;2023-12-29T00:41:57;3.65;;;3.25;;
38715;SDS011;24833;49.324;8.694;2023-12-29T00:44:24;6.20;;;3.88;;
38715;SDS011;24833;49.324;8.694;2023-12-29T00:46:51;3.47;;;3.05;;
38715;SDS011;24833;49.324;8.694;2023-12-29T00:49:18;5.07;;;3.35;;
38715;SDS011;24833;49.324;8.694;2023-12-29T00:51:47;4.70;;;3.80;;
38715;SDS011;24833;49.324;8.694;2023-12-29T00:54:15;3.80;;;3.33;;
38715;SDS011;24833;49.324;8.694;2023-12-29T00:56:47;3.70;;;3.30;;
38715;SDS011;24833;49.324;8.694;2023-12-29T00:59:18;3.25;;;2.95;;
38715;SDS011;24833;49.324;8.694;2023-12-29T01:01:48;3.28;;;2.97;;
38715;SDS011;24833;49.324;8.694;2023-12-29T01:04:16;4.00;;;3.60;;
38715;SDS011;24833;49.324;8.694;2023-12-29T01:06:43;4.15;;;3.13;;
38715;SDS011;24833;49.324;8.694;2023-12-29T01:09:11;3.80;;;3.22;;
38715;SDS011;24833;49.324;8.694;2023-12-29T01:11:38;4.45;;;3.58;;
38715;SDS011;24833;49.324;8.694;2023-12-29T01:14:06;4.13;;;3.38;;
38715;SDS011;24833;49.324;8.694;2023-12-29T01:16:33;3.63;;;3.33;;
38715;SDS011;24833;49.324;8.694;2023-12-29T01:19:00;4.07;;;3.67;;
38715;SDS011;24833;49.324;8.694;2023-12-29T01:21:31;4.80;;;3.50;;
38715;SDS011;24833;49.324;8.694;2023-12-29T01:24:01;3.40;;;3.10;;
38715;SDS011;24833;49.324;8.694;2023-12-29T01:26:30;4.32;;;3.60;;
38715;SDS011;24833;49.324;8.694;2023-12-29T01:28:57;3.95;;;3.55;;
38715;SDS011;24833;49.324;8.694;2023-12-29T01:31:28;3.50;;;3.13;;
38715;SDS011;24833;49.324;8.694;2023-12-29T01:33:57;3.63;;;3.33;;
38715;SDS011;24833;49.324;8.694;2023-12-29T01:36:25;4.05;;;3.65;;
38715;SDS011;24833;49.324;8.694;2023-12-29T01:38:52;4.82;;;3.72;;
38715;SDS011;24833;49.324;8.694;2023-12-29T01:41:19;3.92;;;3.53;;
38715;SDS011;24833;49.324;8.694;2023-12-29T01:46:27;4.30;;;3.42;;
38715;SDS011;24833;49.324;8.694;2023-12-29T01:48:57;4.00;;;3.70;;
38715;SDS011;24833;49.324;8.694;2023-12-29T01:51:26;4.03;;;3.30;;
38715;SDS011;24833;49.324;8.694;2023-12-29T01:53:55;3.75;;;3.10;;
38715;SDS011;24833;49.324;8.694;2023-12-29T01:56:24;3.42;;;3.00;;
38715;SDS011;24833;49.324;8.694;2023-12-29T01:58:52;3.47;;;3.17;;
38715;SDS011;24833;49.324;8.694;2023-12-29T02:01:34;3.70;;;3.22;;
38715;SDS011;24833;49.324;8.694;2023-12-29T02:04:04;3.45;;;3.15;;
38715;SDS011;24833;49.324;8.694;2023-12-29T02:06:33;3.40;;;3.10;;
38715;SDS011;24833;49.324;8.694;2023-12-29T02:09:02;3.63;;;3.30;;
38715;SDS011;24833;49.324;8.694;2023-12-29T02:11:31;3.60;;;2.97;;
38715;SDS011;24833;49.324;8.694;2023-12-29T02:13:58;3.60;;;3.10;;
38715;SDS011;24833;49.324;8.694;2023-12-29T02:19:27;3.25;;;2.95;;
38715;SDS011;24833;49.324;8.694;2023-12-29T02:22:12;3.45;;;2.67;;
38715;SDS011;24833;49.324;8.694;2023-12-29T02:24:50;2.92;;;2.65;;
38715;SDS011;24833;49.324;8.694;2023-12-29T02:30:29;2.25;;;2.05;;
38715;SDS011;24833;49.324;8.694;2023-12-29T02:33:29;2.72;;;2.50;;
38715;SDS011;24833;49.324;8.694;2023-12-29T02:36:02;2.75;;;2.55;;
38715;SDS011;24833;49.324;8.694;2023-12-29T02:38:32;3.10;;;2.80;;
38715;SDS011;24833;49.324;8.694;2023-12-29T02:41:00;2.65;;;2.45;;
38715;SDS011;24833;49.324;8.694;2023-12-29T02:43:27;2.45;;;2.25;;
38715;SDS011;24833;49.324;8.694;2023-12-29T02:45:57;2.92;;;2.55;;
38715;SDS011;24833;49.324;8.694;2023-12-29T02:48:24;2.70;;;2.50;;
38715;SDS011;24833;49.324;8.694;2023-12-29T02:50:51;2.85;;;2.25;;
38715;SDS011;24833;49.324;8.694;2023-12-29T02:53:18;3.65;;;2.85;;
38715;SDS011;24833;49.324;8.694;2023-12-29T02:55:45;2.63;;;2.42;;
38715;SDS011;24833;49.324;8.694;2023-12-29T02:58:12;2.70;;;2.45;;
38715;SDS011;24833;49.324;8.694;2023-12-29T03:00:39;3.38;;;2.70;;
38715;SDS011;24833;49.324;8.694;2023-12-29T03:03:07;3.80;;;2.67;;
38715;SDS011;24833;49.324;8.694;2023-12-29T03:05:34;2.88;;;2.53;;
38715;SDS011;24833;49.324;8.694;2023-12-29T03:08:01;2.83;;;2.35;;
38715;SDS011;24833;49.324;8.694;2023-12-29T03:10:29;2.47;;;2.28;;
38715;SDS011;24833;49.324;8.694;2023-12-29T03:12:56;3.17;;;2.90;;
38715;SDS011;24833;49.324;8.694;2023-12-29T03:15:23;3.10;;;2.80;;
38715;SDS011;24833;49.324;8.694;2023-12-29T03:17:50;3.30;;;3.00;;
38715;SDS011;24833;49.324;8.694;2023-12-29T03:20:17;3.03;;;2.70;;
38715;SDS011;24833;49.324;8.694;2023-12-29T03:22:44;3.65;;;3.10;;
38715;SDS011;24833;49.324;8.694;2023-12-29T03:25:11;3.58;;;3.25;;
38715;SDS011;24833;49.324;8.694;2023-12-29T03:27:39;3.47;;;3.00;;
38715;SDS011;24833;49.324;8.694;2023-12-29T03:30:06;3.45;;;2.83;;
38715;SDS011;24833;49.324;8.694;2023-12-29T03:32:34;3.67;;;3.38;;
38715;SDS011;24833;49.324;8.694;2023-12-29T03:35:01;3.55;;;3.25;;
38715;SDS011;24833;49.324;8.694;2023-12-29T03:37:28;4.25;;;3.42;;
38715;SDS011;24833;49.324;8.694;2023-12-29T03:39:55;4.30;;;3.38;;
38715;SDS011;24833;49.324;8.694;2023-12-29T03:42:22;3.05;;;2.85;;
38715;SDS011;24833;49.324;8.694;2023-12-29T03:44:49;3.53;;;3.22;;
38715;SDS011;24833;49.324;8.694;2023-12-29T03:47:16;3.80;;;3.50;;
38715;SDS011;24833;49.324;8.694;2023-12-29T03:49:44;3.40;;;3.10;;
38715;SDS011;24833;49.324;8.694;2023-12-29T03:52:11;3.92;;;3.45;;
38715;SDS011;24833;49.324;8.694;2023-12-29T03:54:38;3.13;;;2.60;;
38715;SDS011;24833;49.324;8.694;2023-12-29T03:57:05;3.38;;;3.08;;
38715;SDS011;24833;49.324;8.694;2023-12-29T03:59:36;5.15;;;3.70;;
38715;SDS011;24833;49.324;8.694;2023-12-29T04:02:04;3.38;;;3.08;;
38715;SDS011;24833;49.324;8.694;2023-12-29T04:04:31;2.80;;;2.55;;
38715;SDS011;24833;49.324;8.694;2023-12-29T04:06:58;2.85;;;2.58;;
38715;SDS011;24833;49.324;8.694;2023-12-29T04:09:25;3.35;;;2.97;;
38715;SDS011;24833;49.324;8.694;2023-12-29T04:11:52;3.28;;;2.97;;
38715;SDS011;24833;49.324;8.694;2023-12-29T04:14:19;3.08;;;2.78;;
38715;SDS011;24833;49.324;8.694;2023-12-29T04:16:46;3.88;;;3.10;;
38715;SDS011;24833;49.324;8.694;2023-12-29T04:19:13;3.72;;;3.03;;
38715;SDS011;24833;49.324;8.694;2023-12-29T04:21:41;3.55;;;3.05;;
38715;SDS011;24833;49.324;8.694;2023-12-29T04:24:09;3.05;;;2.70;;
38715;SDS011;24833;49.324;8.694;2023-12-29T04:26:36;3.47;;;2.53;;
38715;SDS011;24833;49.324;8.694;2023-12-29T04:29:04;3.47;;;2.75;;
38715;SDS011;24833;49.324;8.694;2023-12-29T04:31:31;2.53;;;2.33;;
38715;SDS011;24833;49.324;8.694;2023-12-29T04:33:58;2.20;;;2.00;;
38715;SDS011;24833;49.324;8.694;2023-12-29T04:36:26;2.42;;;2.10;;
38715;SDS011;24833;49.324;8.694;2023-12-29T04:38:53;2.30;;;2.10;;
38715;SDS011;24833;49.324;8.694;2023-12-29T04:41:22;2.83;;;2.25;;
38715;SDS011;24833;49.324;8.694;2023-12-29T04:43:49;4.03;;;2.95;;
38715;SDS011;24833;49.324;8.694;2023-12-29T04:46:17;2.70;;;2.50;;
38715;SDS011;24833;49.324;8.694;2023-12-29T04:48:44;2.97;;;2.53;;
38715;SDS011;24833;49.324;8.694;2023-12-29T04:51:11;2.85;;;2.55;;
38715;SDS011;24833;49.324;8.694;2023-12-29T04:53:38;2.88;;;2.33;;
38715;SDS011;24833;49.324;8.694;2023-12-29T04:56:05;3.25;;;2.53;;
38715;SDS011;24833;49.324;8.694;2023-12-29T04:58:32;2.28;;;2.08;;
38715;SDS011;24833;49.324;8.694;2023-12-29T05:00:59;2.40;;;2.20;;
38715;SDS011;24833;49.324;8.694;2023-12-29T05:03:26;2.22;;;2.00;;
38715;SDS011;24833;49.324;8.694;2023-12-29T05:05:54;1.85;;;1.67;;
38715;SDS011;24833;49.324;8.694;2023-12-29T05:08:21;2.10;;;1.90;;
38715;SDS011;24833;49.324;8.694;2023-12-29T05:10:48;2.17;;;1.98;;
38715;SDS011;24833;49.324;8.694;2023-12-29T05:13:15;2.05;;;1.85;;
38715;SDS011;24833;49.324;8.694;2023-12-29T05:15:42;2.50;;;2.30;;
38715;SDS011;24833;49.324;8.694;2023-12-29T05:18:09;3.05;;;2.42;;
38715;SDS011;24833;49.324;8.694;2023-12-29T05:20:37;2.13;;;2.03;;
38715;SDS011;24833;49.324;8.694;2023-12-29T05:23:04;2.20;;;2.00;;
38715;SDS011;24833;49.324;8.694;2023-12-29T05:25:31;2.58;;;2.38;;
38715;SDS011;24833;49.324;8.694;2023-12-29T05:27:58;2.08;;;1.88;;
38715;SDS011;24833;49.324;8.694;2023-12-29T05:30:25;2.83;;;2.22;;
38715;SDS011;24833;49.324;8.694;2023-12-29T05:32:58;2.40;;;2.20;;
38715;SDS011;24833;49.324;8.694;2023-12-29T05:35:25;5.10;;;2.40;;
38715;SDS011;24833;49.324;8.694;2023-12-29T05:37:52;1.80;;;1.70;;
38715;SDS011;24833;49.324;8.694;2023-12-29T05:40:19;2.22;;;2.03;;
38715;SDS011;24833;49.324;8.694;2023-12-29T05:42:46;2.05;;;1.85;;
38715;SDS011;24833;49.324;8.694;2023-12-29T05:45:15;2.20;;;1.98;;
38715;SDS011;24833;49.324;8.694;2023-12-29T05:47:44;2.22;;;2.03;;
38715;SDS011;24833;49.324;8.694;2023-12-29T05:50:11;2.55;;;2.35;;
38715;SDS011;24833;49.324;8.694;2023-12-29T05:52:38;2.42;;;2.22;;
38715;SDS011;24833;49.324;8.694;2023-12-29T05:55:05;2.92;;;2.63;;
38715;SDS011;24833;49.324;8.694;2023-12-29T05:57:32;4.45;;;2.60;;
38715;SDS011;24833;49.324;8.694;2023-12-29T05:59:59;2.85;;;2.40;;
38715;SDS011;24833;49.324;8.694;2023-12-29T06:02:26;2.80;;;2.35;;
38715;SDS011;24833;49.324;8.694;2023-12-29T06:04:53;2.88;;;2.47;;
38715;SDS011;24833;49.324;8.694;2023-12-29T06:07:20;2.90;;;2.50;;
38715;SDS011;24833;49.324;8.694;2023-12-29T06:09:47;2.78;;;2.58;;
38715;SDS011;24833;49.324;8.694;2023-12-29T06:12:14;2.88;;;2.53;;
38715;SDS011;24833;49.324;8.694;2023-12-29T06:14:41;2.85;;;2.60;;
38715;SDS011;24833;49.324;8.694;2023-12-29T06:17:08;2.92;;;2.60;;
38715;SDS011;24833;49.324;8.694;2023-12-29T06:19:35;2.75;;;2.50;;
38715;SDS011;24833;49.324;8.694;2023-12-29T06:22:03;2.47;;;2.28;;
38715;SDS011;24833;49.324;8.694;2023-12-29T06:24:30;3.05;;;2.58;;
38715;SDS011;24833;49.324;8.694;2023-12-29T06:26:59;4.35;;;3.25;;
38715;SDS011;24833;49.324;8.694;2023-12-29T06:29:26;3.90;;;3.50;;
38715;SDS011;24833;49.324;8.694;2023-12-29T06:31:53;3.25;;;2.95;;
38715;SDS011;24833;49.324;8.694;2023-12-29T06:34:20;3.22;;;2.78;;
38715;SDS011;24833;49.324;8.694;2023-12-29T06:36:47;3.10;;;2.80;;
38715;SDS011;24833;49.324;8.694;2023-12-29T06:39:14;3.58;;;3.20;;
38715;SDS011;24833;49.324;8.694;2023-12-29T06:41:41;4.50;;;3.55;;
38715;SDS011;24833;49.324;8.694;2023-12-29T06:44:08;3.63;;;3.20;;
38715;SDS011;24833;49.324;8.694;2023-12-29T06:46:37;3.15;;;2.80;;
38715;SDS011;24833;49.324;8.694;2023-12-29T06:49:06;3.55;;;2.78;;
38715;SDS011;24833;49.324;8.694;2023-12-29T06:51:34;3.22;;;2.63;;
38715;SDS011;24833;49.324;8.694;2023-12-29T06:54:07;3.03;;;2.42;;
38715;SDS011;24833;49.324;8.694;2023-12-29T06:56:34;2.70;;;2.28;;
38715;SDS011;24833;49.324;8.694;2023-12-29T06:59:01;4.43;;;2.90;;
38715;SDS011;24833;49.324;8.694;2023-12-29T07:01:28;2.67;;;2.45;;
38715;SDS011;24833;49.324;8.694;2023-12-29T07:03:55;2.40;;;2.20;;
38715;SDS011;24833;49.324;8.694;2023-12-29T07:06:22;2.78;;;2.00;;
38715;SDS011;24833;49.324;8.694;2023-12-29T07:08:49;3.22;;;2.53;;
38715;SDS011;24833;49.324;8.694;2023-12-29T07:11:16;2.13;;;1.92;;
38715;SDS011;24833;49.324;8.694;2023-12-29T07:13:43;2.40;;;2.17;;
38715;SDS011;24833;49.324;8.694;2023-12-29T07:16:10;5.30;;;2.63;;
38715;SDS011;24833;49.324;8.694;2023-12-29T07:18:37;3.15;;;2.60;;
38715;SDS011;24833;49.324;8.694;2023-12-29T07:21:04;3.20;;;2.80;;
38715;SDS011;24833;49.324;8.694;2023-12-29T07:23:31;2.83;;;2.55;;
38715;SDS011;24833;49.324;8.694;2023-12-29T07:25:58;4.43;;;3.80;;
38715;SDS011;24833;49.324;8.694;2023-12-29T07:28:25;4.55;;;3.55;;
38715;SDS011;24833;49.324;8.694;2023-12-29T07:30:52;4.78;;;4.30;;
38715;SDS011;24833;49.324;8.694;2023-12-29T07:33:19;5.20;;;4.38;;
38715;SDS011;24833;49.324;8.694;2023-12-29T07:35:47;7.93;;;3.90;;
38715;SDS011;24833;49.324;8.694;2023-12-29T07:38:14;3.65;;;3.08;;
38715;SDS011;24833;49.324;8.694;2023-12-29T07:40:41;3.08;;;2.75;;
38715;SDS011;24833;49.324;8.694;2023-12-29T07:43:08;2.58;;;2.25;;
38715;SDS011;24833;49.324;8.694;2023-12-29T07:45:35;2.83;;;2.47;;
38715;SDS011;24833;49.324;8.694;2023-12-29T07:48:04;3.67;;;2.70;;
38715;SDS011;24833;49.324;8.694;2023-12-29T07:50:38;2.22;;;2.05;;
38715;SDS011;24833;49.324;8.694;2023-12-29T07:53:05;2.58;;;2.38;;
38715;SDS011;24833;49.324;8.694;2023-12-29T07:55:33;1.65;;;1.55;;
38715;SDS011;24833;49.324;8.694;2023-12-29T07:58:06;3.85;;;2.10;;
38715;SDS011;24833;49.324;8.694;2023-12-29T08:00:36;2.22;;;2.00;;
38715;SDS011;24833;49.324;8.694;2023-12-29T08:03:04;2.10;;;1.90;;
38715;SDS011;24833;49.324;8.694;2023-12-29T08:05:32;2.88;;;2.50;;
38715;SDS011;24833;49.324;8.694;2023-12-29T08:08:00;2.40;;;2.20;;
38715;SDS011;24833;49.324;8.694;2023-12-29T08:10:27;2.85;;;2.03;;
38715;SDS011;24833;49.324;8.694;2023-12-29T08:12:54;2.28;;;2.08;;
38715;SDS011;24833;49.324;8.694;2023-12-29T08:15:22;2.80;;;2.45;;
38715;SDS011;24833;49.324;8.694;2023-12-29T08:17:49;3.67;;;2.67;;
38715;SDS011;24833;49.324;8.694;2023-12-29T08:20:16;2.22;;;2.03;;
38715;SDS011;24833;49.324;8.694;2023-12-29T08:22:43;3.08;;;2.53;;
38715;SDS011;24833;49.324;8.694;2023-12-29T08:25:10;3.55;;;2.80;;
38715;SDS011;24833;49.324;8.694;2023-12-29T08:27:37;3.03;;;2.70;;
38715;SDS011;24833;49.324;8.694;2023-12-29T08:30:04;2.83;;;2.53;;
38715;SDS011;24833;49.324;8.694;2023-12-29T08:32:32;2.40;;;2.20;;
38715;SDS011;24833;49.324;8.694;2023-12-29T08:34:59;2.45;;;2.25;;
38715;SDS011;24833;49.324;8.694;2023-12-29T08:37:27;2.80;;;2.60;;
38715;SDS011;24833;49.324;8.694;2023-12-29T08:39:54;3.63;;;2.63;;
38715;SDS011;24833;49.324;8.694;2023-12-29T08:42:23;2.50;;;2.30;;
38715;SDS011;24833;49.324;8.694;2023-12-29T08:44:50;2.30;;;2.10;;
38715;SDS011;24833;49.324;8.694;2023-12-29T08:47:17;2.65;;;2.40;;
38715;SDS011;24833;49.324;8.694;2023-12-29T08:49:44;2.80;;;2.35;;
38715;SDS011;24833;49.324;8.694;2023-12-29T08:52:12;2.53;;;2.30;;
38715;SDS011;24833;49.324;8.694;2023-12-29T08:54:39;3.00;;;2.63;;
38715;SDS011;24833;49.324;8.694;2023-12-29T08:57:06;2.38;;;2.17;;
38715;SDS011;24833;49.324;8.694;2023-12-29T08:59:33;2.63;;;2.42;;
38715;SDS011;24833;49.324;8.694;2023-12-29T09:02:00;3.42;;;2.40;;
38715;SDS011;24833;49.324;8.694;2023-12-29T09:04:27;3.72;;;2.50;;
38715;SDS011;24833;49.324;8.694;2023-12-29T09:06:54;2.92;;;2.33;;
38715;SDS011;24833;49.324;8.694;2023-12-29T09:09:22;2.47;;;2.28;;
38715;SDS011;24833;49.324;8.694;2023-12-29T09:11:49;2.65;;;2.05;;
38715;SDS011;24833;49.324;8.694;2023-12-29T09:14:16;7.15;;;2.38;;
38715;SDS011;24833;49.324;8.694;2023-12-29T09:16:43;3.03;;;2.60;;
38715;SDS011;24833;49.324;8.694;2023-12-29T09:19:12;2.70;;;2.50;;
38715;SDS011;24833;49.324;8.694;2023-12-29T09:21:56;2.83;;;2.47;;
38715;SDS011;24833;49.324;8.694;2023-12-29T09:24:24;2.38;;;2.17;;
38715;SDS011;24833;49.324;8.694;2023-12-29T09:26:51;2.60;;;2.40;;
38715;SDS011;24833;49.324;8.694;2023-12-29T09:29:18;2.72;;;2.53;;
38715;SDS011;24833;49.324;8.694;2023-12-29T09:31:45;2.72;;;2.53;;
38715;SDS011;24833;49.324;8.694;2023-12-29T09:34:13;2.88;;;2.47;;
38715;SDS011;24833;49.324;8.694;2023-12-29T09:36:40;3.72;;;2.67;;
38715;SDS011;24833;49.324;8.694;2023-12-29T09:39:07;2.75;;;2.20;;
38715;SDS011;24833;49.324;8.694;2023-12-29T09:41:34;2.38;;;2.17;;
38715;SDS011;24833;49.324;8.694;2023-12-29T09:44:10;2.40;;;2.20;;
38715;SDS011;24833;49.324;8.694;2023-12-29T09:46:41;2.90;;;2.45;;
38715;SDS011;24833;49.324;8.694;2023-12-29T09:49:09;2.20;;;1.92;;
38715;SDS011;24833;49.324;8.694;2023-12-29T09:51:38;2.50;;;2.17;;
38715;SDS011;24833;49.324;8.694;2023-12-29T09:54:07;2.47;;;2.08;;
38715;SDS011;24833;49.324;8.694;2023-12-29T09:56:39;1.63;;;1.52;;
38715;SDS011;24833;49.324;8.694;2023-12-29T09:59:11;2.30;;;1.90;;
38715;SDS011;24833;49.324;8.694;2023-12-29T10:01:41;1.75;;;1.63;;
38715;SDS011;24833;49.324;8.694;2023-12-29T10:04:11;3.92;;;1.92;;
38715;SDS011;24833;49.324;8.694;2023-12-29T10:06:38;2.17;;;1.63;;
38715;SDS011;24833;49.324;8.694;2023-12-29T10:09:15;2.80;;;2.10;;
38715;SDS011;24833;49.324;8.694;2023-12-29T10:11:47;1.65;;;1.55;;
38715;SDS011;24833;49.324;8.694;2023-12-29T10:14:22;1.85;;;1.60;;
38715;SDS011;24833;49.324;8.694;2023-12-29T10:16:53;2.08;;;1.88;;
38715;SDS011;24833;49.324;8.694;2023-12-29T10:19:58;1.65;;;1.52;;
38715;SDS011;24833;49.324;8.694;2023-12-29T10:26:03;1.90;;;1.58;;
38715;SDS011;24833;49.324;8.694;2023-12-29T10:28:32;1.58;;;1.48;;
38715;SDS011;24833;49.324;8.694;2023-12-29T10:30:59;1.80;;;1.60;;
38715;SDS011;24833;49.324;8.694;2023-12-29T10:33:26;2.65;;;1.85;;
38715;SDS011;24833;49.324;8.694;2023-12-29T10:35:57;1.38;;;1.27;;
38715;SDS011;24833;49.324;8.694;2023-12-29T10:38:33;2.13;;;1.45;;
38715;SDS011;24833;49.324;8.694;2023-12-29T10:41:16;2.65;;;1.65;;
38715;SDS011;24833;49.324;8.694;2023-12-29T10:43:45;1.95;;;1.40;;
38715;SDS011;24833;49.324;8.694;2023-12-29T10:46:21;1.52;;;1.42;;
38715;SDS011;24833;49.324;8.694;2023-12-29T10:48:51;2.40;;;1.77;;
38715;SDS011;24833;49.324;8.694;2023-12-29T10:51:18;2.08;;;1.50;;
38715;SDS011;24833;49.324;8.694;2023-12-29T10:53:56;1.58;;;1.20;;
38715;SDS011;24833;49.324;8.694;2023-12-29T10:56:23;2.78;;;1.45;;
38715;SDS011;24833;49.324;8.694;2023-12-29T10:58:59;1.75;;;1.45;;
38715;SDS011;24833;49.324;8.694;2023-12-29T11:01:31;2.03;;;1.70;;
38715;SDS011;24833;49.324;8.694;2023-12-29T11:04:01;1.55;;;1.38;;
38715;SDS011;24833;49.324;8.694;2023-12-29T11:06:43;1.90;;;1.70;;
38715;SDS011;24833;49.324;8.694;2023-12-29T11:09:19;1.20;;;1.15;;
38715;SDS011;24833;49.324;8.694;2023-12-29T11:12:00;1.83;;;1.67;;
38715;SDS011;24833;49.324;8.694;2023-12-29T11:14:32;2.60;;;1.67;;
38715;SDS011;24833;49.324;8.694;2023-12-29T11:17:00;2.65;;;1.83;;
38715;SDS011;24833;49.324;8.694;2023-12-29T11:19:27;3.00;;;2.15;;
38715;SDS011;24833;49.324;8.694;2023-12-29T11:21:55;2.13;;;1.70;;
38715;SDS011;24833;49.324;8.694;2023-12-29T11:24:23;1.30;;;1.20;;
38715;SDS011;24833;49.324;8.694;2023-12-29T11:27:03;1.38;;;1.27;;
38715;SDS011;24833;49.324;8.694;2023-12-29T11:32:01;1.13;;;1.02;;
38715;SDS011;24833;49.324;8.694;2023-12-29T11:34:34;1.67;;;1.10;;
38715;SDS011;24833;49.324;8.694;2023-12-29T11:43:42;1.30;;;0.90;;
38715;SDS011;24833;49.324;8.694;2023-12-29T11:49:06;1.10;;;1.00;;
38715;SDS011;24833;49.324;8.694;2023-12-29T11:51:56;0.95;;;0.88;;
38715;SDS011;24833;49.324;8.694;2023-12-29T11:54:47;0.85;;;0.77;;
38715;SDS011;24833;49.324;8.694;2023-12-29T11:57:14;1.00;;;1.00;;
38715;SDS011;24833;49.324;8.694;2023-12-29T11:59:59;0.93;;;0.85;;
38715;SDS011;24833;49.324;8.694;2023-12-29T12:02:37;1.05;;;0.88;;
38715;SDS011;24833;49.324;8.694;2023-12-29T12:05:05;1.10;;;0.85;;
38715;SDS011;24833;49.324;8.694;2023-12-29T12:13:04;0.77;;;0.77;;
38715;SDS011;24833;49.324;8.694;2023-12-29T12:15:33;0.80;;;0.80;;
38715;SDS011;24833;49.324;8.694;2023-12-29T12:18:04;0.95;;;0.90;;
38715;SDS011;24833;49.324;8.694;2023-12-29T12:20:36;1.08;;;0.98;;
38715;SDS011;24833;49.324;8.694;2023-12-29T12:23:11;0.95;;;0.82;;
38715;SDS011;24833;49.324;8.694;2023-12-29T12:25:45;1.73;;;0.90;;
38715;SDS011;24833;49.324;8.694;2023-12-29T12:28:16;0.80;;;0.80;;
38715;SDS011;24833;49.324;8.694;2023-12-29T12:33:11;1.50;;;0.88;;
38715;SDS011;24833;49.324;8.694;2023-12-29T12:35:40;1.10;;;1.00;;
38715;SDS011;24833;49.324;8.694;2023-12-29T12:38:12;0.75;;;0.65;;
38715;SDS011;24833;49.324;8.694;2023-12-29T12:40:48;0.88;;;0.80;;
38715;SDS011;24833;49.324;8.694;2023-12-29T12:43:16;0.73;;;0.70;;
38715;SDS011;24833;49.324;8.694;2023-12-29T12:46:02;1.15;;;0.93;;
38715;SDS011;24833;49.324;8.694;2023-12-29T12:48:41;1.17;;;0.80;;
38715;SDS011;24833;49.324;8.694;2023-12-29T12:51:12;1.23;;;1.13;;
38715;SDS011;24833;49.324;8.694;2023-12-29T12:53:40;1.60;;;1.00;;
38715;SDS011;24833;49.324;8.694;2023-12-29T12:56:08;0.65;;;0.60;;
38715;SDS011;24833;49.324;8.694;2023-12-29T12:58:35;0.90;;;0.90;;
38715;SDS011;24833;49.324;8.694;2023-12-29T13:01:02;1.33;;;0.95;;
38715;SDS011;24833;49.324;8.694;2023-12-29T13:03:30;1.92;;;1.38;;
38715;SDS011;24833;49.324;8.694;2023-12-29T13:05:59;1.70;;;1.20;;
38715;SDS011;24833;49.324;8.694;2023-12-29T13:08:27;0.90;;;0.90;;
38715;SDS011;24833;49.324;8.694;2023-12-29T13:11:03;1.42;;;1.25;;
38715;SDS011;24833;49.324;8.694;2023-12-29T13:13:35;1.52;;;1.30;;
38715;SDS011;24833;49.324;8.694;2023-12-29T13:16:04;1.10;;;1.00;;
38715;SDS011;24833;49.324;8.694;2023-12-29T13:18:32;1.80;;;1.20;;
38715;SDS011;24833;49.324;8.694;2023-12-29T13:21:01;1.20;;;1.10;;
38715;SDS011;24833;49.324;8.694;2023-12-29T13:23:28;1.35;;;1.23;;
38715;SDS011;24833;49.324;8.694;2023-12-29T13:26:02;1.67;;;1.27;;
38715;SDS011;24833;49.324;8.694;2023-12-29T13:28:34;1.30;;;1.20;;
38715;SDS011;24833;49.324;8.694;2023-12-29T13:31:05;1.15;;;1.05;;
38715;SDS011;24833;49.324;8.694;2023-12-29T13:39:27;0.73;;;0.68;;
38715;SDS011;24833;49.324;8.694;2023-12-29T13:42:24;0.90;;;0.90;;
38715;SDS011;24833;49.324;8.694;2023-12-29T13:44:56;1.65;;;1.13;;
38715;SDS011;24833;49.324;8.694;2023-12-29T13:47:25;0.93;;;0.90;;
38715;SDS011;24833;49.324;8.694;2023-12-29T13:49:53;1.30;;;1.08;;
38715;SDS011;24833;49.324;8.694;2023-12-29T13:52:20;1.65;;;1.20;;
38715;SDS011;24833;49.324;8.694;2023-12-29T13:54:48;1.67;;;1.20;;
38715;SDS011;24833;49.324;8.694;2023-12-29T13:57:15;1.40;;;1.02;;
38715;SDS011;24833;49.324;8.694;2023-12-29T13:59:45;0.83;;;0.83;;
38715;SDS011;24833;49.324;8.694;2023-12-29T14:02:20;1.25;;;1.15;;
38715;SDS011;24833;49.324;8.694;2023-12-29T14:05:15;1.15;;;1.05;;
38715;SDS011;24833;49.324;8.694;2023-12-29T14:07:53;0.70;;;0.65;;
38715;SDS011;24833;49.324;8.694;2023-12-29T14:10:34;2.08;;;1.10;;
38715;SDS011;24833;49.324;8.694;2023-12-29T14:15:43;1.65;;;0.88;;
38715;SDS011;24833;49.324;8.694;2023-12-29T14:21:29;0.60;;;0.60;;
38715;SDS011;24833;49.324;8.694;2023-12-29T14:24:10;1.48;;;1.00;;
38715;SDS011;24833;49.324;8.694;2023-12-29T14:26:40;1.38;;;1.15;;
38715;SDS011;24833;49.324;8.694;2023-12-29T14:29:13;1.15;;;1.05;;
38715;SDS011;24833;49.324;8.694;2023-12-29T14:31:44;1.27;;;1.15;;
38715;SDS011;24833;49.324;8.694;2023-12-29T14:34:12;0.93;;;0.90;;
38715;SDS011;24833;49.324;8.694;2023-12-29T14:36:40;1.00;;;0.85;;
38715;SDS011;24833;49.324;8.694;2023-12-29T14:39:09;1.25;;;0.90;;
38715;SDS011;24833;49.324;8.694;2023-12-29T14:41:37;1.52;;;1.23;;
38715;SDS011;24833;49.324;8.694;2023-12-29T14:44:05;4.00;;;1.77;;
38715;SDS011;24833;49.324;8.694;2023-12-29T14:46:32;1.15;;;1.02;;
38715;SDS011;24833;49.324;8.694;2023-12-29T14:49:03;2.42;;;1.45;;
38715;SDS011;24833;49.324;8.694;2023-12-29T14:51:30;2.20;;;1.80;;
38715;SDS011;24833;49.324;8.694;2023-12-29T14:53:57;1.40;;;1.23;;
38715;SDS011;24833;49.324;8.694;2023-12-29T14:56:24;1.33;;;1.23;;
38715;SDS011;24833;49.324;8.694;2023-12-29T14:58:51;1.73;;;1.25;;
38715;SDS011;24833;49.324;8.694;2023-12-29T15:01:19;3.38;;;1.40;;
38715;SDS011;24833;49.324;8.694;2023-12-29T15:03:46;1.40;;;1.30;;
38715;SDS011;24833;49.324;8.694;2023-12-29T15:06:14;1.40;;;1.25;;
38715;SDS011;24833;49.324;8.694;2023-12-29T15:08:41;1.10;;;1.00;;
38715;SDS011;24833;49.324;8.694;2023-12-29T15:11:08;0.80;;;0.77;;
38715;SDS011;24833;49.324;8.694;2023-12-29T15:13:35;1.63;;;0.80;;
38715;SDS011;24833;49.324;8.694;2023-12-29T15:16:02;1.15;;;0.90;;
38715;SDS011;24833;49.324;8.694;2023-12-29T15:18:30;0.90;;;0.82;;
38715;SDS011;24833;49.324;8.694;2023-12-29T15:20:58;0.85;;;0.85;;
38715;SDS011;24833;49.324;8.694;2023-12-29T15:23:25;1.23;;;1.00;;
38715;SDS011;24833;49.324;8.694;2023-12-29T15:25:54;1.00;;;0.90;;
38715;SDS011;24833;49.324;8.694;2023-12-29T15:28:22;1.00;;;1.00;;
38715;SDS011;24833;49.324;8.694;2023-12-29T15:30:49;0.77;;;0.77;;
38715;SDS011;24833;49.324;8.694;2023-12-29T15:33:17;0.82;;;0.82;;
38715;SDS011;24833;49.324;8.694;2023-12-29T15:35:45;0.80;;;0.80;;
38715;SDS011;24833;49.324;8.694;2023-12-29T15:38:13;1.15;;;0.95;;
38715;SDS011;24833;49.324;8.694;2023-12-29T15:40:40;1.15;;;1.00;;
38715;SDS011;24833;49.324;8.694;2023-12-29T15:43:07;1.02;;;0.95;;